Time;durP1;ratioP1;P1;durP2;ratioP2;P2;SDS_P1;SDS_P2;PMS_P1;PMS_P2;Temp;Humidity;BMP_temperature;BMP_pressure;BME280_temperature;BME280_humidity;BME280_pressure;Samples;Min_cycle;Max_cycle;Signal;HPM_P1;HPM_P2
2024/01/04 00:00:23;;;;;;;1.90;0.82;;;15.90;85.00;;;;;;4172064;28;20064;-50
2024/01/04 00:03:04;;;;;;;0.90;0.60;;;16.00;84.90;;;;;;4171386;28;20052;-48
2024/01/04 00:05:45;;;;;;;3.03;0.45;;;15.90;84.70;;;;;;4170435;28;20462;-51
2024/01/04 00:08:26;;;;;;;2.95;0.63;;;15.90;84.60;;;;;;4171869;28;20063;-51
2024/01/04 00:11:07;;;;;;;2.55;1.48;;;15.90;84.70;;;;;;4182271;28;20059;-52
2024/01/04 00:13:49;;;;;;;2.70;0.75;;;15.90;84.90;;;;;;4188482;28;20194;-49
2024/01/04 00:16:33;;;;;;;2.47;0.55;;;16.00;85.10;;;;;;4182752;28;20068;-52
2024/01/04 00:19:14;;;;;;;3.47;0.75;;;16.00;84.70;;;;;;4162284;28;20044;-51
2024/01/04 00:21:55;;;;;;;1.05;0.57;;;16.10;84.40;;;;;;4197232;28;20190;-50
2024/01/04 00:24:37;;;;;;;1.08;0.75;;;16.10;84.10;;;;;;4155493;28;20508;-50
2024/01/04 00:27:18;;;;;;;1.33;0.57;;;16.10;83.90;;;;;;4183064;28;20059;-52
2024/01/04 00:30:00;;;;;;;2.03;0.50;;;16.10;84.00;;;;;;4184579;28;20423;-51
2024/01/04 00:32:43;;;;;;;1.50;0.40;;;16.10;83.40;;;;;;4168309;28;20051;-37
2024/01/04 00:35:24;;;;;;;0.82;0.40;;;16.10;83.60;;;;;;4193025;28;20103;-36
2024/01/04 00:38:05;;;;;;;1.33;0.55;;;16.10;83.40;;;;;;4181602;28;20089;-36
2024/01/04 00:40:46;;;;;;;1.35;0.50;;;16.20;83.70;;;;;;4171147;28;20106;-36
2024/01/04 00:43:27;;;;;;;1.15;0.50;;;16.20;84.60;;;;;;4187969;28;20416;-37
2024/01/04 00:46:09;;;;;;;0.93;0.40;;;16.20;83.70;;;;;;4181429;28;20183;-36
2024/01/04 00:48:50;;;;;;;1.77;0.93;;;16.30;83.60;;;;;;4174517;28;20055;-37
2024/01/04 00:51:32;;;;;;;3.03;0.57;;;16.30;83.20;;;;;;4180832;28;20048;-36
2024/01/04 00:54:13;;;;;;;3.95;0.47;;;16.30;82.90;;;;;;4171501;28;20059;-36
2024/01/04 00:56:54;;;;;;;3.78;0.65;;;16.30;82.80;;;;;;4164281;28;20047;-35
2024/01/04 00:59:35;;;;;;;1.25;0.50;;;16.40;82.90;;;;;;4195276;28;20047;-36
2024/01/04 01:02:17;;;;;;;0.60;0.60;;;16.30;82.80;;;;;;4187181;28;20402;-36
2024/01/04 01:04:59;;;;;;;4.13;0.70;;;16.40;82.50;;;;;;4185663;28;20182;-37
2024/01/04 01:07:39;;;;;;;2.20;0.47;;;16.40;82.00;;;;;;4187404;28;20079;-37
2024/01/04 01:10:20;;;;;;;1.35;0.50;;;16.50;81.90;;;;;;4185971;28;20305;-37
2024/01/04 01:13:01;;;;;;;2.75;0.68;;;16.50;82.90;;;;;;4187225;28;20051;-37
2024/01/04 01:15:42;;;;;;;0.73;0.40;;;16.50;81.90;;;;;;4185490;28;20052;-36
2024/01/04 01:18:24;;;;;;;0.73;0.57;;;16.50;81.50;;;;;;4169936;28;20938;-37
2024/01/04 01:21:06;;;;;;;2.08;0.65;;;16.60;81.40;;;;;;4170738;28;20060;-37
2024/01/04 01:23:47;;;;;;;2.72;0.38;;;16.60;81.30;;;;;;4183175;28;20075;-37
2024/01/04 01:26:28;;;;;;;1.10;0.57;;;16.50;81.10;;;;;;4187212;28;20052;-36
2024/01/04 01:29:09;;;;;;;2.60;0.50;;;16.50;81.20;;;;;;4186929;28;20083;-37
2024/01/04 01:31:50;;;;;;;1.42;0.50;;;16.50;81.20;;;;;;4186424;28;20633;-36
2024/01/04 01:34:32;;;;;;;1.00;0.30;;;16.40;81.40;;;;;;4171643;28;20186;-36
2024/01/04 01:37:14;;;;;;;1.35;0.52;;;16.40;81.70;;;;;;4170796;28;20365;-37
2024/01/04 01:39:55;;;;;;;2.97;0.52;;;16.50;82.20;;;;;;4187434;28;20412;-36
2024/01/04 01:42:36;;;;;;;3.15;0.40;;;16.50;81.20;;;;;;4171010;28;20059;-37
2024/01/04 01:45:17;;;;;;;2.05;0.60;;;16.50;81.10;;;;;;4171855;28;20048;-36
2024/01/04 01:47:59;;;;;;;0.82;0.40;;;16.50;80.40;;;;;;4173009;28;20138;-37
2024/01/04 01:50:41;;;;;;;0.82;0.47;;;16.50;80.40;;;;;;4164915;28;20048;-37
2024/01/04 01:53:24;;;;;;;0.75;0.63;;;16.50;80.30;;;;;;4181483;28;20117;-37
2024/01/04 01:56:05;;;;;;;1.40;0.50;;;16.50;80.20;;;;;;4187421;28;20105;-38
2024/01/04 01:58:49;;;;;;;1.27;0.60;;;16.50;80.20;;;;;;4168918;28;20450;-37
2024/01/04 02:01:30;;;;;;;2.28;0.40;;;16.40;80.50;;;;;;4168857;28;20060;-37
2024/01/04 02:04:11;;;;;;;;;;;16.40;80.80;;;;;;4165025;28;20059;-37
2024/01/04 02:06:53;;;;;;;3.03;0.68;;;16.50;81.10;;;;;;4187000;28;20394;-37
2024/01/04 02:09:34;;;;;;;1.55;0.20;;;16.50;80.40;;;;;;4186074;28;20158;-37
2024/01/04 02:12:15;;;;;;;1.83;0.55;;;16.60;80.40;;;;;;4171493;28;20064;-37
2024/01/04 02:14:56;;;;;;;1.55;0.77;;;16.60;80.00;;;;;;4170630;28;20106;-37
2024/01/04 02:17:37;;;;;;;2.25;0.50;;;16.60;79.90;;;;;;4186648;28;20130;-37
2024/01/04 02:20:19;;;;;;;3.22;0.73;;;16.60;79.90;;;;;;4154822;28;20056;-37
2024/01/04 02:23:02;;;;;;;6.55;0.50;;;16.50;80.00;;;;;;4161087;28;20126;-37
2024/01/04 02:25:44;;;;;;;0.30;0.30;;;16.50;80.00;;;;;;4170592;28;20055;-36
2024/01/04 02:28:25;;;;;;;1.45;0.57;;;16.40;80.10;;;;;;4178138;28;20056;-37
2024/01/04 02:31:07;;;;;;;0.77;0.52;;;16.40;80.30;;;;;;4168773;28;20055;-37
2024/01/04 02:33:47;;;;;;;1.52;0.40;;;16.30;81.00;;;;;;4172775;28;20083;-37
2024/01/04 02:36:29;;;;;;;1.85;0.52;;;16.40;81.10;;;;;;4172215;28;20060;-37
2024/01/04 02:39:11;;;;;;;2.17;0.30;;;16.40;81.10;;;;;;4187900;28;20059;-37
2024/01/04 02:41:52;;;;;;;1.27;0.60;;;16.40;81.10;;;;;;4189157;28;20059;-37
2024/01/04 02:44:33;;;;;;;4.00;0.52;;;16.50;80.90;;;;;;4172319;28;20064;-37
2024/01/04 02:47:14;;;;;;;3.13;0.50;;;16.50;80.80;;;;;;4189083;28;20067;-37
2024/01/04 02:49:55;;;;;;;0.85;0.50;;;16.50;79.90;;;;;;4167905;28;20056;-36
2024/01/04 02:52:36;;;;;;;0.70;0.40;;;16.50;80.50;;;;;;4189630;28;20521;-38
2024/01/04 02:55:19;;;;;;;1.35;0.47;;;16.50;80.50;;;;;;4188724;28;20048;-38
2024/01/04 02:58:00;;;;;;;2.42;0.50;;;16.40;80.40;;;;;;4187804;28;20118;-37
2024/01/04 03:00:41;;;;;;;0.63;0.40;;;16.40;80.30;;;;;;4172530;28;20060;-37
2024/01/04 03:03:22;;;;;;;0.98;0.40;;;16.30;81.40;;;;;;4182199;28;20059;-36
2024/01/04 03:06:04;;;;;;;0.73;0.38;;;16.20;80.30;;;;;;4173359;28;20048;-37
2024/01/04 03:08:45;;;;;;;0.77;0.43;;;16.20;80.80;;;;;;4189093;28;20158;-36
2024/01/04 03:11:27;;;;;;;0.40;0.30;;;16.10;81.50;;;;;;4172786;28;20503;-37
2024/01/04 03:14:08;;;;;;;0.60;0.40;;;16.20;81.70;;;;;;4173101;28;20071;-37
2024/01/04 03:16:49;;;;;;;0.38;0.38;;;16.30;81.40;;;;;;4156624;28;20089;-37
2024/01/04 03:19:30;;;;;;;2.17;0.60;;;16.40;81.20;;;;;;4166330;28;20056;-37
2024/01/04 03:22:11;;;;;;;1.15;0.43;;;16.40;81.10;;;;;;4188658;28;20051;-36
2024/01/04 03:24:52;;;;;;;1.75;0.40;;;16.50;81.10;;;;;;4188684;28;20059;-36
2024/01/04 03:27:35;;;;;;;0.50;0.30;;;16.50;80.70;;;;;;4187891;28;20190;-37
2024/01/04 03:30:16;;;;;;;0.65;0.40;;;16.60;80.10;;;;;;4171793;28;20129;-37
2024/01/04 03:32:57;;;;;;;0.38;0.38;;;16.70;79.60;;;;;;4172114;28;20411;-37
2024/01/04 03:35:38;;;;;;;1.00;0.45;;;16.80;79.50;;;;;;4172571;28;20087;-36
2024/01/04 03:38:19;;;;;;;0.82;0.35;;;16.80;80.20;;;;;;4187380;28;20113;-36
2024/01/04 03:41:02;;;;;;;1.98;0.40;;;16.80;79.10;;;;;;4187874;28;20055;-37
2024/01/04 03:43:44;;;;;;;0.45;0.35;;;16.90;78.90;;;;;;4171249;28;20048;-36
2024/01/04 03:46:25;;;;;;;2.33;0.60;;;16.90;78.60;;;;;;4188326;28;20055;-36
2024/01/04 03:49:06;;;;;;;1.02;0.43;;;16.90;78.70;;;;;;4187574;28;20051;-36
2024/01/04 03:51:47;;;;;;;1.75;0.28;;;16.80;77.80;;;;;;4188526;28;20052;-37
2024/01/04 03:54:28;;;;;;;1.10;0.40;;;16.80;78.60;;;;;;4171778;28;20055;-37
2024/01/04 03:57:09;;;;;;;0.40;0.40;;;16.90;78.60;;;;;;4158782;28;20055;-50
2024/01/04 03:59:52;;;;;;;1.50;0.40;;;16.80;78.60;;;;;;4172263;28;20168;-51
2024/01/04 04:02:33;;;;;;;0.65;0.50;;;16.80;78.40;;;;;;4174986;28;20070;-51
2024/01/04 04:05:14;;;;;;;0.65;0.30;;;16.80;78.70;;;;;;4188606;28;20056;-51
2024/01/04 04:07:55;;;;;;;0.85;0.68;;;16.80;79.20;;;;;;4170850;28;20056;-50
2024/01/04 04:10:36;;;;;;;0.60;0.40;;;16.80;79.20;;;;;;4176625;28;20047;-49
2024/01/04 04:13:18;;;;;;;0.88;0.43;;;16.80;79.00;;;;;;4188036;28;20190;-51
2024/01/04 04:16:01;;;;;;;;;;;16.80;78.70;;;;;;4188397;28;20149;-51
2024/01/04 04:18:42;;;;;;;1.80;0.77;;;16.80;78.90;;;;;;4172418;28;19927;-53
2024/01/04 04:21:24;;;;;;;2.03;0.95;;;16.80;78.90;;;;;;4169472;28;20068;-51
2024/01/04 04:24:07;;;;;;;1.55;0.60;;;16.80;78.80;;;;;;4171187;28;20044;-54
2024/01/04 04:26:48;;;;;;;1.67;0.40;;;16.80;78.70;;;;;;4171988;28;20052;-50
2024/01/04 04:29:29;;;;;;;2.30;0.70;;;16.80;78.90;;;;;;4173628;28;20052;-51
2024/01/04 04:32:11;;;;;;;1.17;0.40;;;16.80;79.10;;;;;;4160779;28;20098;-51
2024/01/04 04:34:52;;;;;;;2.17;0.73;;;16.80;78.80;;;;;;4172271;28;20398;-49
2024/01/04 04:37:33;;;;;;;2.13;0.30;;;16.90;79.40;;;;;;4171770;28;20122;-53
2024/01/04 04:40:14;;;;;;;3.53;0.30;;;16.90;78.30;;;;;;4173685;28;20059;-53
2024/01/04 04:42:56;;;;;;;2.10;0.70;;;16.90;78.10;;;;;;4171014;28;20056;-52
2024/01/04 04:45:37;;;;;;;2.88;0.50;;;16.90;78.30;;;;;;4170965;28;20056;-49
2024/01/04 04:48:19;;;;;;;3.05;0.80;;;16.90;78.70;;;;;;4171872;28;20098;-52
2024/01/04 04:51:01;;;;;;;2.00;0.50;;;16.90;78.50;;;;;;4181142;28;20589;-47
2024/01/04 04:53:42;;;;;;;2.05;0.52;;;16.90;78.30;;;;;;4171276;28;20052;-52
2024/01/04 04:56:23;;;;;;;0.55;0.50;;;16.90;78.30;;;;;;4171700;28;20845;-50
2024/01/04 04:59:05;;;;;;;2.40;0.38;;;16.90;78.10;;;;;;4172624;28;20056;-52
2024/01/04 05:01:45;;;;;;;0.50;0.35;;;16.90;78.20;;;;;;4179784;28;20126;-47
2024/01/04 05:04:28;;;;;;;2.08;0.60;;;16.80;78.50;;;;;;4171207;28;20448;-49
2024/01/04 05:07:09;;;;;;;1.23;0.70;;;16.80;78.50;;;;;;4172088;28;20064;-51
2024/01/04 05:09:50;;;;;;;1.50;0.70;;;16.80;79.60;;;;;;4170920;28;20055;-51
2024/01/04 05:12:31;;;;;;;1.70;0.50;;;16.80;78.80;;;;;;4170366;28;20067;-47
2024/01/04 05:15:12;;;;;;;0.40;0.40;;;16.80;78.70;;;;;;4155126;28;20204;-47
2024/01/04 05:17:54;;;;;;;0.63;0.38;;;16.80;78.60;;;;;;4181601;28;20060;-47
2024/01/04 05:20:36;;;;;;;1.52;0.47;;;16.70;78.60;;;;;;4170918;28;20633;-52
2024/01/04 05:23:18;;;;;;;1.10;0.70;;;16.70;78.70;;;;;;4170576;28;20055;-51
2024/01/04 05:25:59;;;;;;;1.35;0.20;;;16.80;78.70;;;;;;4169788;28;20071;-52
2024/01/04 05:28:40;;;;;;;2.75;2.65;;;16.80;78.40;;;;;;4184344;28;20055;-53
2024/01/04 05:31:21;;;;;;;0.90;0.40;;;16.80;78.20;;;;;;4187016;28;20238;-51
2024/01/04 05:34:02;;;;;;;1.58;0.47;;;16.80;77.90;;;;;;4186450;28;20054;-51
2024/01/04 05:36:44;;;;;;;1.02;0.50;;;16.80;78.10;;;;;;4181411;28;20575;-50
2024/01/04 05:39:25;;;;;;;0.60;0.40;;;16.80;78.10;;;;;;4170531;28;20056;-52
2024/01/04 05:42:06;;;;;;;1.60;0.40;;;16.70;78.10;;;;;;4185655;28;20056;-50
2024/01/04 05:44:47;;;;;;;2.03;0.73;;;16.80;77.80;;;;;;4187705;28;20054;-50
2024/01/04 05:47:29;;;;;;;0.63;0.40;;;16.80;77.70;;;;;;4184078;28;20059;-51
2024/01/04 05:50:10;;;;;;;1.70;0.52;;;16.80;77.90;;;;;;4187194;28;20178;-49
2024/01/04 05:52:52;;;;;;;0.73;0.30;;;16.80;77.90;;;;;;4181031;28;20063;-53
2024/01/04 05:55:33;;;;;;;0.55;0.55;;;16.70;79.00;;;;;;4183337;28;20074;-53
2024/01/04 05:58:15;;;;;;;3.75;0.80;;;16.70;78.40;;;;;;4186287;28;20132;-48
2024/01/04 06:00:55;;;;;;;0.75;0.55;;;16.80;78.40;;;;;;4171087;28;20056;-48
2024/01/04 06:03:36;;;;;;;2.00;0.30;;;16.80;78.30;;;;;;4174337;28;20098;-50
2024/01/04 06:06:19;;;;;;;1.20;0.45;;;16.80;78.10;;;;;;4184102;28;20134;-48
2024/01/04 06:09:03;;;;;;;3.42;0.70;;;16.80;78.10;;;;;;4186256;28;20064;-50
2024/01/04 06:11:44;;;;;;;1.58;0.50;;;16.80;78.20;;;;;;4188129;28;20056;-48
2024/01/04 06:14:25;;;;;;;1.65;0.30;;;16.80;78.50;;;;;;4175993;28;20064;-49
2024/01/04 06:17:07;;;;;;;1.08;0.50;;;16.80;78.60;;;;;;4167477;28;20078;-52
2024/01/04 06:19:48;;;;;;;1.13;0.40;;;16.80;78.50;;;;;;4188955;28;20420;-50
2024/01/04 06:22:29;;;;;;;3.13;0.70;;;16.80;78.20;;;;;;4188249;28;20411;-51
2024/01/04 06:25:11;;;;;;;0.60;0.40;;;16.80;78.00;;;;;;4181511;28;20137;-55
2024/01/04 06:27:52;;;;;;;1.13;0.55;;;16.80;77.90;;;;;;4192124;28;20055;-53
2024/01/04 06:30:35;;;;;;;4.50;0.55;;;16.80;78.00;;;;;;4175549;28;20048;-53
2024/01/04 06:33:17;;;;;;;1.75;0.50;;;16.70;78.20;;;;;;4183405;28;20089;-53
2024/01/04 06:35:58;;;;;;;2.83;0.50;;;16.70;78.30;;;;;;4192119;28;20067;-51
2024/01/04 06:38:39;;;;;;;1.65;0.40;;;16.70;78.60;;;;;;4158985;28;20060;-52
2024/01/04 06:41:23;;;;;;;2.83;1.20;;;16.80;78.30;;;;;;4173403;28;20187;-50
2024/01/04 06:44:04;;;;;;;1.80;0.70;;;16.80;78.10;;;;;;4192640;28;20055;-49
2024/01/04 06:46:45;;;;;;;2.00;0.32;;;16.80;77.80;;;;;;4192941;28;20053;-50
2024/01/04 06:49:26;;;;;;;1.55;0.40;;;16.80;78.10;;;;;;4174503;28;20048;-48
2024/01/04 06:52:08;;;;;;;4.65;0.50;;;16.80;78.10;;;;;;4192012;28;20063;-47
2024/01/04 06:54:49;;;;;;;2.80;0.50;;;16.90;78.30;;;;;;4192024;28;20059;-49
2024/01/04 06:57:31;;;;;;;1.33;0.40;;;17.00;78.40;;;;;;4192324;28;20067;-51
2024/01/04 07:00:13;;;;;;;1.17;0.40;;;17.00;78.00;;;;;;4192160;28;20067;-52
2024/01/04 07:02:54;;;;;;;0.75;0.50;;;17.00;78.00;;;;;;4189262;28;20047;-53
2024/01/04 07:05:35;;;;;;;1.48;0.57;;;17.00;78.10;;;;;;4179752;28;20194;-50
2024/01/04 07:08:16;;;;;;;0.50;0.50;;;17.00;78.20;;;;;;4189977;28;20121;-51
2024/01/04 07:10:57;;;;;;;2.45;0.40;;;17.00;77.90;;;;;;4175708;28;20056;-52
2024/01/04 07:13:39;;;;;;;1.05;0.50;;;17.00;77.90;;;;;;4188317;28;20055;-51
2024/01/04 07:16:20;;;;;;;2.88;0.82;;;17.00;77.70;;;;;;4184082;28;20055;-45
2024/01/04 07:19:01;;;;;;;1.02;0.52;;;17.00;77.50;;;;;;4177040;28;20059;-47
2024/01/04 07:21:43;;;;;;;2.00;0.40;;;16.90;76.90;;;;;;4187501;28;20518;-47
2024/01/04 07:24:23;;;;;;;0.50;0.50;;;16.90;77.20;;;;;;4179320;28;20432;-46
2024/01/04 07:27:05;;;;;;;3.63;0.60;;;16.90;77.70;;;;;;4170136;28;20052;-48
2024/01/04 07:29:47;;;;;;;1.15;0.55;;;16.90;78.90;;;;;;4155201;28;20063;-54
2024/01/04 07:32:28;;;;;;;2.10;0.50;;;16.90;78.70;;;;;;4172098;28;20401;-52
2024/01/04 07:35:12;;;;;;;1.42;0.52;;;16.80;78.60;;;;;;4170321;28;20565;-53
2024/01/04 07:37:57;;;;;;;1.83;0.60;;;16.80;79.00;;;;;;4172241;28;20155;-37
2024/01/04 07:40:38;;;;;;;2.75;0.60;;;16.80;79.60;;;;;;4188529;28;20055;-38
2024/01/04 07:43:20;;;;;;;4.85;0.70;;;16.80;78.70;;;;;;4170631;28;20079;-37
2024/01/04 07:46:03;;;;;;;2.65;0.90;;;16.80;79.30;;;;;;4188515;28;20052;-37
2024/01/04 07:48:44;;;;;;;2.80;0.80;;;16.80;79.60;;;;;;4176912;28;20110;-37
2024/01/04 07:51:25;;;;;;;1.85;0.63;;;16.80;80.10;;;;;;4186831;28;20408;-37
2024/01/04 07:54:06;;;;;;;2.70;0.95;;;16.80;80.20;;;;;;4172581;28;20102;-38
2024/01/04 07:56:47;;;;;;;1.67;0.60;;;16.80;80.10;;;;;;4182232;28;20071;-38
2024/01/04 07:59:28;;;;;;;2.58;0.85;;;16.80;80.30;;;;;;4171884;28;20052;-38
2024/01/04 08:02:11;;;;;;;1.35;0.80;;;16.80;80.40;;;;;;4171499;28;20052;-37
2024/01/04 08:04:53;;;;;;;0.88;0.88;;;16.80;80.40;;;;;;4170893;28;20044;-37
2024/01/04 08:07:34;;;;;;;0.60;0.47;;;16.80;80.60;;;;;;4187729;28;20392;-37
2024/01/04 08:10:15;;;;;;;1.83;0.80;;;16.70;80.70;;;;;;4187647;28;20125;-38
2024/01/04 08:12:56;;;;;;;2.05;0.43;;;16.70;80.40;;;;;;4188535;28;20060;-37
2024/01/04 08:15:37;;;;;;;1.67;0.68;;;16.70;80.70;;;;;;4186127;28;20059;-37
2024/01/04 08:18:21;;;;;;;2.95;0.80;;;16.70;80.40;;;;;;4155070;28;20165;-38
2024/01/04 08:21:02;;;;;;;1.15;0.60;;;16.60;80.40;;;;;;4168908;28;20052;-37
2024/01/04 08:23:44;;;;;;;1.20;0.47;;;16.70;80.20;;;;;;4188290;28;20060;-37
2024/01/04 08:26:27;;;;;;;1.00;0.52;;;16.70;80.00;;;;;;4186290;28;20056;-37
2024/01/04 08:29:07;;;;;;;1.85;0.77;;;16.70;79.60;;;;;;4165263;28;20072;-38
2024/01/04 08:31:49;;;;;;;2.05;0.50;;;16.70;79.50;;;;;;4170024;28;20055;-38
2024/01/04 08:34:32;;;;;;;6.35;0.77;;;16.70;79.70;;;;;;4178432;28;20064;-38
2024/01/04 08:37:14;;;;;;;0.63;0.55;;;16.70;80.10;;;;;;4172046;28;20048;-39
2024/01/04 08:39:55;;;;;;;2.50;0.47;;;16.70;80.20;;;;;;4183875;28;20051;-38
2024/01/04 08:42:37;;;;;;;2.15;0.68;;;16.80;80.20;;;;;;4162719;28;20102;-38
2024/01/04 08:45:18;;;;;;;0.77;0.60;;;16.80;79.90;;;;;;4187508;28;20047;-39
2024/01/04 08:47:59;;;;;;;4.00;1.13;;;16.80;79.50;;;;;;4186562;28;20497;-37
2024/01/04 08:50:42;;;;;;;3.72;1.48;;;16.80;80.20;;;;;;4186746;28;20380;-37
2024/01/04 08:53:23;;;;;;;0.60;0.52;;;16.70;80.30;;;;;;4171456;28;20055;-38
2024/01/04 08:56:08;;;;;;;4.07;1.27;;;16.60;80.80;;;;;;4171446;28;20060;-38
2024/01/04 08:58:49;;;;;;;2.65;0.70;;;16.70;81.20;;;;;;4165533;28;20056;-37
2024/01/04 09:01:31;;;;;;;2.40;0.70;;;16.70;81.00;;;;;;4166373;28;20091;-38
2024/01/04 09:04:12;;;;;;;0.90;0.57;;;16.80;80.60;;;;;;4159978;28;20505;-38
2024/01/04 09:06:54;;;;;;;;;;;16.80;80.30;;;;;;4171214;28;20400;-37
2024/01/04 09:09:35;;;;;;;0.60;0.60;;;16.70;80.30;;;;;;4170531;28;19928;-37
2024/01/04 09:12:16;;;;;;;0.93;0.68;;;16.70;80.60;;;;;;4170182;28;20056;-37
2024/01/04 09:14:58;;;;;;;1.85;0.55;;;16.80;80.50;;;;;;4170905;28;20126;-38
2024/01/04 09:17:41;;;;;;;1.02;0.60;;;16.80;80.20;;;;;;4170653;28;20707;-37
2024/01/04 09:20:22;;;;;;;1.00;0.47;;;16.90;79.80;;;;;;4170743;28;20729;-38
2024/01/04 09:23:05;;;;;;;0.93;0.35;;;16.90;79.50;;;;;;4170942;28;20060;-37
2024/01/04 09:25:46;;;;;;;1.48;0.60;;;16.80;79.30;;;;;;4169132;28;20060;-37
2024/01/04 09:28:27;;;;;;;1.33;0.73;;;16.80;79.20;;;;;;4168765;28;20056;-52
2024/01/04 09:31:08;;;;;;;2.08;0.50;;;16.70;79.40;;;;;;4170511;28;20159;-38
2024/01/04 09:33:49;;;;;;;;;;;16.70;79.90;;;;;;4169706;28;20499;-37
2024/01/04 09:36:31;;;;;;;1.33;0.90;;;16.70;80.40;;;;;;4162383;28;19951;-38
2024/01/04 09:39:17;;;;;;;0.93;0.73;;;16.80;80.00;;;;;;4170135;28;20498;-38
2024/01/04 09:42:01;;;;;;;0.35;0.35;;;16.80;79.90;;;;;;4170221;28;20507;-38
2024/01/04 09:44:43;;;;;;;3.83;1.23;;;16.80;79.30;;;;;;4170562;28;20126;-37
2024/01/04 09:47:24;;;;;;;1.92;0.47;;;16.80;79.50;;;;;;4170324;28;20203;-37
2024/01/04 09:50:10;;;;;;;0.52;0.45;;;16.70;78.50;;;;;;4170606;28;20048;-37
2024/01/04 09:52:54;;;;;;;0.70;0.30;;;16.60;79.00;;;;;;4153843;28;20130;-37
2024/01/04 09:55:38;;;;;;;1.23;0.40;;;16.60;78.00;;;;;;4170500;28;20055;-37
2024/01/04 09:58:19;;;;;;;1.27;0.45;;;16.60;79.80;;;;;;4170493;28;20079;-37
2024/01/04 10:01:03;;;;;;;1.63;0.68;;;16.60;79.30;;;;;;4154640;28;20056;-38
2024/01/04 10:03:47;;;;;;;0.80;0.55;;;16.60;79.50;;;;;;4154281;28;20400;-37
2024/01/04 10:06:32;;;;;;;2.13;0.60;;;16.60;79.90;;;;;;4181461;28;20059;-37
2024/01/04 10:09:20;;;;;;;0.40;0.40;;;16.60;78.40;;;;;;4185382;28;20055;-38
2024/01/04 10:12:07;;;;;;;1.88;0.30;;;16.50;78.90;;;;;;4186992;28;20097;-38
2024/01/04 10:14:49;;;;;;;1.83;0.50;;;16.60;78.80;;;;;;4187047;28;20056;-37
2024/01/04 10:17:32;;;;;;;1.02;0.52;;;16.60;78.90;;;;;;4187173;28;20101;-38
2024/01/04 10:20:14;;;;;;;0.20;0.20;;;16.70;78.60;;;;;;4170499;28;20059;-38
2024/01/04 10:22:57;;;;;;;0.88;0.40;;;16.70;77.90;;;;;;4186994;28;20214;-38
2024/01/04 10:25:39;;;;;;;0.73;0.50;;;16.70;77.90;;;;;;4186710;28;20112;-37
2024/01/04 10:28:23;;;;;;;0.85;0.50;;;16.70;77.20;;;;;;4171987;28;20101;-37
2024/01/04 10:31:04;;;;;;;0.82;0.40;;;16.70;78.00;;;;;;4186888;28;20050;-37
2024/01/04 10:33:45;;;;;;;1.50;0.80;;;16.70;76.60;;;;;;4186626;28;20068;-38
2024/01/04 10:36:28;;;;;;;1.05;0.40;;;16.80;75.90;;;;;;4186307;28;20410;-37
2024/01/04 10:39:09;;;;;;;0.47;0.47;;;16.80;75.90;;;;;;4170124;28;20164;-37
2024/01/04 10:41:59;;;;;;;;;;;16.80;75.70;;;;;;4170108;28;20055;-38
2024/01/04 10:44:45;;;;;;;1.75;0.50;;;16.80;77.60;;;;;;4153303;28;20690;-38
2024/01/04 10:47:27;;;;;;;1.10;0.40;;;16.80;76.90;;;;;;4154280;28;20599;-54
2024/01/04 10:50:11;;;;;;;1.13;0.40;;;16.80;76.70;;;;;;4180831;28;20056;-54
2024/01/04 10:52:55;;;;;;;0.82;0.80;;;16.90;77.10;;;;;;4189307;28;20391;-53
2024/01/04 10:55:37;;;;;;;1.50;0.50;;;17.00;76.70;;;;;;4189011;28;20716;-52
2024/01/04 10:58:20;;;;;;;1.30;0.60;;;17.00;76.60;;;;;;4188237;28;20051;-56
2024/01/04 11:01:03;;;;;;;1.10;0.50;;;16.90;76.50;;;;;;4188751;28;20086;-38
2024/01/04 11:03:48;;;;;;;1.52;0.55;;;17.00;76.70;;;;;;4183658;28;20182;-38
2024/01/04 11:06:34;;;;;;;0.90;0.45;;;16.90;76.80;;;;;;4156767;28;20076;-38
2024/01/04 11:09:18;;;;;;;0.80;0.55;;;17.00;76.50;;;;;;4170995;28;20060;-37
2024/01/04 11:12:02;;;;;;;1.67;0.80;;;17.10;76.00;;;;;;4173096;28;20063;-37
2024/01/04 11:14:43;;;;;;;2.67;0.60;;;17.00;75.80;;;;;;4173128;28;20060;-37
2024/01/04 11:17:43;;;;;;;13.45;7.75;;;17.00;75.90;;;;;;4171618;28;20091;-38
2024/01/04 11:20:42;;;;;;;6.97;4.65;;;17.00;75.90;;;;;;4180758;28;20141;-37
2024/01/04 11:23:51;;;;;;;2.15;1.15;;;17.00;76.10;;;;;;4187749;28;20047;-38
2024/01/04 11:26:45;;;;;;;1.00;0.63;;;17.00;76.10;;;;;;4189201;28;20052;-37
2024/01/04 11:29:27;;;;;;;2.25;0.50;;;17.00;76.30;;;;;;4188366;28;20051;-38
2024/01/04 11:32:09;;;;;;;1.48;0.50;;;16.90;76.50;;;;;;4188894;28;20182;-37
2024/01/04 11:34:51;;;;;;;7.43;5.38;;;16.80;76.70;;;;;;4189372;28;20226;-38
2024/01/04 11:37:33;;;;;;;3.08;2.45;;;16.80;76.50;;;;;;4172540;28;20060;-37
2024/01/04 11:40:25;;;;;;;0.70;0.70;;;16.60;76.60;;;;;;4172421;28;20429;-37
2024/01/04 11:43:14;;;;;;;2.72;2.05;;;16.60;76.90;;;;;;4169947;28;20101;-38
2024/01/04 11:45:55;;;;;;;1.38;0.85;;;16.50;76.70;;;;;;4170770;28;20056;-38
2024/01/04 11:48:36;;;;;;;7.53;4.00;;;16.40;77.70;;;;;;4170252;28;20122;-37
2024/01/04 11:51:18;;;;;;;2.55;0.40;;;16.40;78.30;;;;;;4172465;28;20074;-37
2024/01/04 11:53:59;;;;;;;0.70;0.70;;;16.40;78.60;;;;;;4172463;28;20523;-38
2024/01/04 11:56:41;;;;;;;1.55;1.23;;;16.50;78.60;;;;;;4171308;28;20125;-38
2024/01/04 11:59:32;;;;;;;0.93;0.38;;;16.60;78.30;;;;;;4188017;28;20181;-37
2024/01/04 12:02:18;;;;;;;2.97;1.27;;;16.60;77.90;;;;;;4187784;28;20143;-39
2024/01/04 12:05:00;;;;;;;2.47;0.80;;;16.70;77.50;;;;;;4188731;28;20507;-38
2024/01/04 12:07:42;;;;;;;3.38;0.65;;;16.80;77.10;;;;;;4175070;28;20067;-37
2024/01/04 12:10:23;;;;;;;0.75;0.40;;;16.80;78.00;;;;;;4182295;28;20548;-37
2024/01/04 12:13:04;;;;;;;0.40;0.40;;;16.80;76.80;;;;;;4172575;28;20075;-37
2024/01/04 12:15:45;;;;;;;0.50;0.50;;;16.80;76.20;;;;;;4161280;28;20499;-38
2024/01/04 12:18:26;;;;;;;1.70;0.50;;;16.80;76.10;;;;;;4171646;28;20060;-37
2024/01/04 12:21:08;;;;;;;;;;;16.80;76.50;;;;;;4172918;28;20599;-37
2024/01/04 12:23:53;;;;;;;0.68;0.60;;;16.80;76.80;;;;;;4161940;28;19936;-38
2024/01/04 12:26:34;;;;;;;1.35;0.45;;;16.90;76.20;;;;;;4171842;28;20052;-38
2024/01/04 12:29:16;;;;;;;0.98;0.70;;;16.90;75.40;;;;;;4159307;28;20083;-37
2024/01/04 12:31:57;;;;;;;1.80;1.38;;;16.90;76.00;;;;;;4172120;28;20056;-37
2024/01/04 12:34:45;;;;;;;0.88;0.60;;;16.80;75.90;;;;;;4156904;28;20056;-38
2024/01/04 12:37:26;;;;;;;1.23;0.60;;;16.80;74.00;;;;;;4174361;28;20056;-37
2024/01/04 12:40:12;;;;;;;1.67;0.88;;;16.90;73.70;;;;;;4187234;28;20178;-37
2024/01/04 12:42:53;;;;;;;0.88;0.57;;;16.90;73.50;;;;;;4184417;28;20048;-37
2024/01/04 12:45:34;;;;;;;1.00;0.60;;;17.00;73.10;;;;;;4181116;28;20527;-37
2024/01/04 12:48:21;;;;;;;0.52;0.52;;;17.00;72.70;;;;;;4187663;28;20097;-37
2024/01/04 12:51:08;;;;;;;1.55;0.60;;;16.90;72.50;;;;;;4187907;28;20506;-39
2024/01/04 12:53:50;;;;;;;0.52;0.38;;;16.90;70.90;;;;;;4180761;28;20072;-38
2024/01/04 12:56:34;;;;;;;1.30;0.52;;;16.90;71.80;;;;;;4171336;28;20087;-39
2024/01/04 12:59:15;;;;;;;1.67;0.90;;;16.90;71.40;;;;;;4172753;28;20404;-38
2024/01/04 13:01:56;;;;;;;1.25;0.80;;;16.90;71.80;;;;;;4185371;28;20067;-38
2024/01/04 13:04:37;;;;;;;2.95;1.02;;;16.90;72.40;;;;;;4174209;28;20242;-38
2024/01/04 13:07:19;;;;;;;1.52;0.70;;;16.80;73.40;;;;;;4178561;28;20056;-38
2024/01/04 13:10:00;;;;;;;2.30;0.90;;;16.80;72.00;;;;;;4176451;28;20071;-37
2024/01/04 13:12:43;;;;;;;0.95;0.95;;;16.90;68.60;;;;;;4186671;28;20201;-37
2024/01/04 13:15:24;;;;;;;1.52;1.08;;;16.90;70.00;;;;;;4185235;28;20185;-39
2024/01/04 13:18:05;;;;;;;3.75;0.93;;;16.80;70.90;;;;;;4185931;28;20507;-38
2024/01/04 13:20:46;;;;;;;2.42;1.33;;;16.80;70.40;;;;;;4187633;28;20051;-38
2024/01/04 13:23:29;;;;;;;1.73;0.82;;;16.70;71.70;;;;;;4187056;28;20060;-38
2024/01/04 13:26:10;;;;;;;1.85;1.20;;;16.70;71.80;;;;;;4186280;28;20561;-38
2024/01/04 13:28:53;;;;;;;2.42;1.55;;;16.60;72.40;;;;;;4187475;28;20056;-37
2024/01/04 13:31:33;;;;;;;2.08;1.35;;;16.60;71.50;;;;;;4185688;28;20581;-38
2024/01/04 13:34:15;;;;;;;2.55;0.70;;;16.50;71.50;;;;;;4187080;28;20054;-38
2024/01/04 13:36:57;;;;;;;1.10;1.00;;;16.40;72.50;;;;;;4187243;28;20155;-37
2024/01/04 13:39:37;;;;;;;0.98;0.82;;;16.30;73.40;;;;;;4186679;28;20055;-37
2024/01/04 13:42:18;;;;;;;0.70;0.70;;;16.30;74.10;;;;;;4187211;28;20047;-37
2024/01/04 13:45:02;;;;;;;1.65;0.50;;;16.30;74.50;;;;;;4186900;28;20047;-38
2024/01/04 13:47:43;;;;;;;1.92;0.70;;;16.30;74.90;;;;;;4183962;28;20407;-37
2024/01/04 13:50:25;;;;;;;0.98;0.70;;;16.30;75.40;;;;;;4180869;28;20392;-37
2024/01/04 13:53:09;;;;;;;0.82;0.50;;;16.30;74.60;;;;;;4185840;28;20055;-38
2024/01/04 13:55:49;;;;;;;3.22;0.70;;;16.30;73.80;;;;;;4169957;28;20126;-39
2024/01/04 13:58:31;;;;;;;3.38;0.60;;;16.30;72.40;;;;;;4170628;28;20083;-38
2024/01/04 14:01:14;;;;;;;3.03;0.60;;;16.30;73.50;;;;;;4170142;28;20195;-37
2024/01/04 14:03:55;;;;;;;0.82;0.82;;;16.10;73.50;;;;;;4186818;28;20059;-37